الصفحة الرئيسية
METAR-TAF:

METAR-TAF

مطار :

مطار أتاتورك الدولي

إسطنبول مطار أتاتورك الدولي, تركيا

دائرة عرض: 40-58N, خط طول: 028-49E, ارتفاع: 48 متر

مراقبة الطقس الحالي

تاريخ ووقت الإصدار 37 دقيقة قبل الساعة 00:50UTC
ريح 9 عقدة من الشمال, الاتجاه يتراوح بين الشمال/الشمال الغربي و الشمال الشرقي
درجة الحرارة 18°درجة مئوية
الرطوبة 94%
ضغط 1019 hPa
الرؤية 10 كم أو أكثر
غيوم قليلة على ارتفاع 1700 قدم
غيوم مفككة على ارتفاع 3000 قدم

METAR: LTBA 170050Z 01009KT 330V050 9999 FEW017 BKN030 18/17 Q1019 NOSIG RMK RWY17L 01010KT RWY05 35009KT RWY23 01008KT

زمن: 04:27 (01:27 UTC)

توقعات

تاريخ ووقت الإصدار 2ساعات و 47 دقيقة قبل الساعة 22:40UTC
التوقعات صالحة من17 الساعة 00 UTC إلى 18 الساعة 06 UTC
ريح 9 عقدة من الشمال/الشمال الشرقي
الرؤية 10 كم أو أكثر
غيوم قليلة على ارتفاع 1700 قدم
غيوم مفككة على ارتفاع 3000 قدم
نظرية الاحتمالات 30%
من 17 الساعة 04 UTC إلى 17 الساعة 07 UTC
زخات من الأمطار الخفيفة
مؤقت
من 17 الساعة 10 UTC إلى 17 الساعة 14 UTC
ريح 15 عقدة من الشمال الشرقي تتزايد حتى 25 عقدة

TAF: LTBA 162240Z 1700/1806 02009KT 9999 FEW017 BKN030 PROB30 1704/1707 -SHRA TEMPO 1710/1714 04015G25KT

أرصاد الطقس والتوقعات من أكثر من 4000 مطار (تقارير الطقس للمطار METAR والتنبؤ بالطقس بالمطارTAF).

المحطات المتاحة هي النقط الصفراء والحمراء على الخريطة.

حرك المؤشر فوق النقطة لمعرفة اسم المحطة.

ثم انقر لمعرفة أرصاد وتوقعات الطقس.

لتغيير الخارطة: اضغط على الأزرار الخضراء مع رمز الصليب الأسود للتكبير. على الزر الأخضر مع شرطة للتصغير، أو على الأسهم الخضراء للخرائط المجاورة.


METAR-TAF: